sensor_id;sensor_type;location;lat;lon;timestamp;P1;durP1;ratioP1;P2;durP2;ratioP2
84301;SDS011;74468;52.218;6.896;2024-02-26T00:01:48;3.33;;;2.38;;
84301;SDS011;74468;52.218;6.896;2024-02-26T00:04:13;3.58;;;3.00;;
84301;SDS011;74468;52.218;6.896;2024-02-26T00:06:39;5.57;;;4.03;;
84301;SDS011;74468;52.218;6.896;2024-02-26T00:09:07;6.38;;;4.65;;
84301;SDS011;74468;52.218;6.896;2024-02-26T00:11:34;5.05;;;3.53;;
84301;SDS011;74468;52.218;6.896;2024-02-26T00:14:00;4.00;;;2.85;;
84301;SDS011;74468;52.218;6.896;2024-02-26T00:16:26;6.88;;;4.15;;
84301;SDS011;74468;52.218;6.896;2024-02-26T00:18:51;5.13;;;4.20;;
84301;SDS011;74468;52.218;6.896;2024-02-26T00:21:17;6.28;;;4.00;;
84301;SDS011;74468;52.218;6.896;2024-02-26T00:23:42;6.53;;;4.05;;
84301;SDS011;74468;52.218;6.896;2024-02-26T00:26:07;8.48;;;5.32;;
84301;SDS011;74468;52.218;6.896;2024-02-26T00:28:33;6.22;;;4.43;;
84301;SDS011;74468;52.218;6.896;2024-02-26T00:30:59;5.75;;;3.70;;
84301;SDS011;74468;52.218;6.896;2024-02-26T00:33:24;3.55;;;2.75;;
84301;SDS011;74468;52.218;6.896;2024-02-26T00:35:49;5.45;;;2.92;;
84301;SDS011;74468;52.218;6.896;2024-02-26T00:38:15;6.32;;;4.38;;
84301;SDS011;74468;52.218;6.896;2024-02-26T00:40:40;4.72;;;3.15;;
84301;SDS011;74468;52.218;6.896;2024-02-26T00:43:06;11.52;;;4.00;;
84301;SDS011;74468;52.218;6.896;2024-02-26T00:45:31;5.90;;;4.05;;
84301;SDS011;74468;52.218;6.896;2024-02-26T00:47:57;4.82;;;2.95;;
84301;SDS011;74468;52.218;6.896;2024-02-26T00:50:23;8.93;;;4.60;;
84301;SDS011;74468;52.218;6.896;2024-02-26T00:52:48;7.68;;;3.78;;
84301;SDS011;74468;52.218;6.896;2024-02-26T00:55:14;7.40;;;4.97;;
84301;SDS011;74468;52.218;6.896;2024-02-26T00:57:39;6.72;;;4.35;;
84301;SDS011;74468;52.218;6.896;2024-02-26T01:00:06;4.97;;;2.97;;
84301;SDS011;74468;52.218;6.896;2024-02-26T01:02:34;3.38;;;2.65;;
84301;SDS011;74468;52.218;6.896;2024-02-26T01:04:59;5.28;;;4.20;;
84301;SDS011;74468;52.218;6.896;2024-02-26T01:07:24;6.60;;;4.07;;
84301;SDS011;74468;52.218;6.896;2024-02-26T01:09:50;6.78;;;4.65;;
84301;SDS011;74468;52.218;6.896;2024-02-26T01:12:15;9.27;;;5.18;;
84301;SDS011;74468;52.218;6.896;2024-02-26T01:14:40;6.93;;;4.70;;
84301;SDS011;74468;52.218;6.896;2024-02-26T01:17:06;6.15;;;4.75;;
84301;SDS011;74468;52.218;6.896;2024-02-26T01:19:31;7.95;;;5.00;;
84301;SDS011;74468;52.218;6.896;2024-02-26T01:21:57;3.95;;;3.10;;
84301;SDS011;74468;52.218;6.896;2024-02-26T01:24:22;5.07;;;3.38;;
84301;SDS011;74468;52.218;6.896;2024-02-26T01:26:47;4.63;;;3.45;;
84301;SDS011;74468;52.218;6.896;2024-02-26T01:29:13;7.18;;;4.18;;
84301;SDS011;74468;52.218;6.896;2024-02-26T01:31:38;5.30;;;4.03;;
84301;SDS011;74468;52.218;6.896;2024-02-26T01:34:03;6.10;;;4.22;;
84301;SDS011;74468;52.218;6.896;2024-02-26T01:36:29;5.63;;;4.30;;
84301;SDS011;74468;52.218;6.896;2024-02-26T01:38:54;6.63;;;4.25;;
84301;SDS011;74468;52.218;6.896;2024-02-26T01:41:19;5.35;;;3.67;;
84301;SDS011;74468;52.218;6.896;2024-02-26T01:43:45;3.40;;;2.60;;
84301;SDS011;74468;52.218;6.896;2024-02-26T01:46:11;6.65;;;4.78;;
84301;SDS011;74468;52.218;6.896;2024-02-26T01:48:39;9.15;;;3.67;;
84301;SDS011;74468;52.218;6.896;2024-02-26T01:51:07;6.22;;;3.88;;
84301;SDS011;74468;52.218;6.896;2024-02-26T01:53:33;4.30;;;3.78;;
84301;SDS011;74468;52.218;6.896;2024-02-26T01:55:59;4.63;;;3.33;;
84301;SDS011;74468;52.218;6.896;2024-02-26T01:58:24;6.22;;;4.00;;
84301;SDS011;74468;52.218;6.896;2024-02-26T02:00:49;8.02;;;4.68;;
84301;SDS011;74468;52.218;6.896;2024-02-26T02:03:15;7.85;;;5.00;;
84301;SDS011;74468;52.218;6.896;2024-02-26T02:05:40;7.20;;;4.68;;
84301;SDS011;74468;52.218;6.896;2024-02-26T02:08:07;4.78;;;3.75;;
84301;SDS011;74468;52.218;6.896;2024-02-26T02:10:34;8.88;;;4.90;;
84301;SDS011;74468;52.218;6.896;2024-02-26T02:12:59;3.30;;;2.40;;
84301;SDS011;74468;52.218;6.896;2024-02-26T02:15:24;6.30;;;3.40;;
84301;SDS011;74468;52.218;6.896;2024-02-26T02:17:50;5.65;;;4.15;;
84301;SDS011;74468;52.218;6.896;2024-02-26T02:20:16;10.65;;;4.55;;
84301;SDS011;74468;52.218;6.896;2024-02-26T02:25:07;3.95;;;2.95;;
84301;SDS011;74468;52.218;6.896;2024-02-26T02:27:33;4.35;;;3.08;;
84301;SDS011;74468;52.218;6.896;2024-02-26T02:29:58;4.82;;;4.28;;
84301;SDS011;74468;52.218;6.896;2024-02-26T02:32:24;2.78;;;2.22;;
84301;SDS011;74468;52.218;6.896;2024-02-26T02:34:50;4.85;;;3.25;;
84301;SDS011;74468;52.218;6.896;2024-02-26T02:37:15;4.00;;;3.10;;
84301;SDS011;74468;52.218;6.896;2024-02-26T02:39:40;6.45;;;4.95;;
84301;SDS011;74468;52.218;6.896;2024-02-26T02:42:08;6.13;;;3.95;;
84301;SDS011;74468;52.218;6.896;2024-02-26T02:44:33;4.75;;;4.25;;
84301;SDS011;74468;52.218;6.896;2024-02-26T02:46:59;6.30;;;4.13;;
84301;SDS011;74468;52.218;6.896;2024-02-26T02:49:24;4.43;;;3.35;;
84301;SDS011;74468;52.218;6.896;2024-02-26T02:51:49;5.88;;;3.33;;
84301;SDS011;74468;52.218;6.896;2024-02-26T02:54:15;7.63;;;4.30;;
84301;SDS011;74468;52.218;6.896;2024-02-26T02:56:40;5.20;;;3.92;;
84301;SDS011;74468;52.218;6.896;2024-02-26T02:59:06;6.38;;;4.15;;
84301;SDS011;74468;52.218;6.896;2024-02-26T03:01:31;6.30;;;3.88;;
84301;SDS011;74468;52.218;6.896;2024-02-26T03:03:56;4.05;;;3.28;;
84301;SDS011;74468;52.218;6.896;2024-02-26T03:06:22;4.95;;;4.35;;
84301;SDS011;74468;52.218;6.896;2024-02-26T03:08:48;4.25;;;3.22;;
84301;SDS011;74468;52.218;6.896;2024-02-26T03:11:13;6.07;;;3.88;;
84301;SDS011;74468;52.218;6.896;2024-02-26T03:13:40;4.53;;;3.65;;
84301;SDS011;74468;52.218;6.896;2024-02-26T03:16:06;7.90;;;3.63;;
84301;SDS011;74468;52.218;6.896;2024-02-26T03:18:31;4.95;;;3.22;;
84301;SDS011;74468;52.218;6.896;2024-02-26T03:20:57;4.63;;;4.28;;
84301;SDS011;74468;52.218;6.896;2024-02-26T03:23:22;4.55;;;2.92;;
84301;SDS011;74468;52.218;6.896;2024-02-26T03:25:47;2.50;;;2.30;;
84301;SDS011;74468;52.218;6.896;2024-02-26T03:28:13;3.38;;;2.53;;
84301;SDS011;74468;52.218;6.896;2024-02-26T03:30:38;3.25;;;2.92;;
84301;SDS011;74468;52.218;6.896;2024-02-26T03:33:04;3.40;;;3.17;;
84301;SDS011;74468;52.218;6.896;2024-02-26T03:35:29;4.40;;;4.00;;
84301;SDS011;74468;52.218;6.896;2024-02-26T03:37:55;3.60;;;2.55;;
84301;SDS011;74468;52.218;6.896;2024-02-26T03:40:20;6.53;;;2.97;;
84301;SDS011;74468;52.218;6.896;2024-02-26T03:42:45;4.75;;;3.40;;
84301;SDS011;74468;52.218;6.896;2024-02-26T03:45:11;3.67;;;2.35;;
84301;SDS011;74468;52.218;6.896;2024-02-26T03:47:37;5.00;;;3.47;;
84301;SDS011;74468;52.218;6.896;2024-02-26T03:50:05;4.07;;;3.42;;
84301;SDS011;74468;52.218;6.896;2024-02-26T03:52:31;5.38;;;3.47;;
84301;SDS011;74468;52.218;6.896;2024-02-26T03:54:56;3.13;;;2.63;;
84301;SDS011;74468;52.218;6.896;2024-02-26T03:57:22;5.32;;;2.85;;
84301;SDS011;74468;52.218;6.896;2024-02-26T03:59:47;3.58;;;2.47;;
84301;SDS011;74468;52.218;6.896;2024-02-26T04:02:13;3.50;;;2.70;;
84301;SDS011;74468;52.218;6.896;2024-02-26T04:04:38;4.60;;;2.67;;
84301;SDS011;74468;52.218;6.896;2024-02-26T04:07:03;5.03;;;3.30;;
84301;SDS011;74468;52.218;6.896;2024-02-26T04:09:31;3.67;;;2.45;;
84301;SDS011;74468;52.218;6.896;2024-02-26T04:11:56;4.55;;;4.15;;
84301;SDS011;74468;52.218;6.896;2024-02-26T04:14:22;3.53;;;2.60;;
84301;SDS011;74468;52.218;6.896;2024-02-26T04:16:47;3.50;;;2.90;;
84301;SDS011;74468;52.218;6.896;2024-02-26T04:19:16;5.40;;;4.32;;
84301;SDS011;74468;52.218;6.896;2024-02-26T04:21:42;3.55;;;3.10;;
84301;SDS011;74468;52.218;6.896;2024-02-26T04:24:07;3.78;;;3.05;;
84301;SDS011;74468;52.218;6.896;2024-02-26T04:26:32;5.95;;;3.80;;
84301;SDS011;74468;52.218;6.896;2024-02-26T04:28:58;3.83;;;2.80;;
84301;SDS011;74468;52.218;6.896;2024-02-26T04:31:23;5.03;;;3.25;;
84301;SDS011;74468;52.218;6.896;2024-02-26T04:33:49;4.18;;;3.78;;
84301;SDS011;74468;52.218;6.896;2024-02-26T04:36:14;5.40;;;3.72;;
84301;SDS011;74468;52.218;6.896;2024-02-26T04:38:41;4.63;;;2.80;;
84301;SDS011;74468;52.218;6.896;2024-02-26T04:41:06;2.30;;;1.98;;
84301;SDS011;74468;52.218;6.896;2024-02-26T04:43:32;7.53;;;3.58;;
84301;SDS011;74468;52.218;6.896;2024-02-26T04:45:57;4.00;;;3.05;;
84301;SDS011;74468;52.218;6.896;2024-02-26T04:48:23;5.20;;;3.05;;
84301;SDS011;74468;52.218;6.896;2024-02-26T04:50:48;4.30;;;3.20;;
84301;SDS011;74468;52.218;6.896;2024-02-26T04:53:13;5.05;;;3.90;;
84301;SDS011;74468;52.218;6.896;2024-02-26T04:55:39;4.35;;;2.78;;
84301;SDS011;74468;52.218;6.896;2024-02-26T04:58:04;5.43;;;3.88;;
84301;SDS011;74468;52.218;6.896;2024-02-26T05:00:29;5.20;;;3.45;;
84301;SDS011;74468;52.218;6.896;2024-02-26T05:02:55;5.00;;;3.92;;
84301;SDS011;74468;52.218;6.896;2024-02-26T05:05:20;6.75;;;2.80;;
84301;SDS011;74468;52.218;6.896;2024-02-26T05:07:45;4.93;;;2.78;;
84301;SDS011;74468;52.218;6.896;2024-02-26T05:10:11;3.78;;;2.28;;
84301;SDS011;74468;52.218;6.896;2024-02-26T05:12:36;5.13;;;2.88;;
84301;SDS011;74468;52.218;6.896;2024-02-26T05:15:02;4.25;;;3.08;;
84301;SDS011;74468;52.218;6.896;2024-02-26T05:17:28;4.55;;;3.38;;
84301;SDS011;74468;52.218;6.896;2024-02-26T05:19:53;4.05;;;3.35;;
84301;SDS011;74468;52.218;6.896;2024-02-26T05:22:19;4.68;;;2.88;;
84301;SDS011;74468;52.218;6.896;2024-02-26T05:24:45;5.22;;;3.63;;
84301;SDS011;74468;52.218;6.896;2024-02-26T05:27:10;4.90;;;3.13;;
84301;SDS011;74468;52.218;6.896;2024-02-26T05:32:02;5.77;;;4.37;;
84301;SDS011;74468;52.218;6.896;2024-02-26T05:34:27;5.40;;;4.90;;
84301;SDS011;74468;52.218;6.896;2024-02-26T05:36:55;4.47;;;2.90;;
84301;SDS011;74468;52.218;6.896;2024-02-26T05:39:20;4.32;;;3.45;;
84301;SDS011;74468;52.218;6.896;2024-02-26T05:41:45;3.00;;;2.55;;
84301;SDS011;74468;52.218;6.896;2024-02-26T05:44:11;3.45;;;3.15;;
84301;SDS011;74468;52.218;6.896;2024-02-26T05:46:36;4.85;;;2.92;;
84301;SDS011;74468;52.218;6.896;2024-02-26T05:49:02;4.50;;;2.58;;
84301;SDS011;74468;52.218;6.896;2024-02-26T05:51:28;3.67;;;2.78;;
84301;SDS011;74468;52.218;6.896;2024-02-26T05:53:53;3.92;;;2.92;;
84301;SDS011;74468;52.218;6.896;2024-02-26T05:56:20;4.43;;;3.40;;
84301;SDS011;74468;52.218;6.896;2024-02-26T05:58:49;4.10;;;2.58;;
84301;SDS011;74468;52.218;6.896;2024-02-26T06:01:15;4.35;;;3.13;;
84301;SDS011;74468;52.218;6.896;2024-02-26T06:03:40;5.32;;;3.20;;
84301;SDS011;74468;52.218;6.896;2024-02-26T06:06:06;6.50;;;3.05;;
84301;SDS011;74468;52.218;6.896;2024-02-26T06:08:31;5.20;;;2.85;;
84301;SDS011;74468;52.218;6.896;2024-02-26T06:10:57;3.72;;;2.50;;
84301;SDS011;74468;52.218;6.896;2024-02-26T06:13:22;5.40;;;2.85;;
84301;SDS011;74468;52.218;6.896;2024-02-26T06:15:47;4.75;;;2.53;;
84301;SDS011;74468;52.218;6.896;2024-02-26T06:18:13;5.18;;;3.58;;
84301;SDS011;74468;52.218;6.896;2024-02-26T06:20:38;6.32;;;3.05;;
84301;SDS011;74468;52.218;6.896;2024-02-26T06:23:03;5.00;;;2.80;;
84301;SDS011;74468;52.218;6.896;2024-02-26T06:25:29;3.97;;;3.10;;
84301;SDS011;74468;52.218;6.896;2024-02-26T06:27:55;4.88;;;4.22;;
84301;SDS011;74468;52.218;6.896;2024-02-26T06:30:20;2.97;;;2.67;;
84301;SDS011;74468;52.218;6.896;2024-02-26T06:32:46;3.55;;;2.83;;
84301;SDS011;74468;52.218;6.896;2024-02-26T06:35:11;4.93;;;3.70;;
84301;SDS011;74468;52.218;6.896;2024-02-26T06:37:36;3.95;;;3.55;;
84301;SDS011;74468;52.218;6.896;2024-02-26T06:40:02;4.60;;;2.70;;
84301;SDS011;74468;52.218;6.896;2024-02-26T06:42:31;4.72;;;3.03;;
84301;SDS011;74468;52.218;6.896;2024-02-26T06:44:59;3.22;;;2.75;;
84301;SDS011;74468;52.218;6.896;2024-02-26T06:47:25;6.70;;;3.03;;
84301;SDS011;74468;52.218;6.896;2024-02-26T06:49:51;3.42;;;2.90;;
84301;SDS011;74468;52.218;6.896;2024-02-26T06:52:16;4.38;;;3.88;;
84301;SDS011;74468;52.218;6.896;2024-02-26T06:54:41;4.07;;;3.28;;
84301;SDS011;74468;52.218;6.896;2024-02-26T06:57:07;5.05;;;3.22;;
84301;SDS011;74468;52.218;6.896;2024-02-26T06:59:32;4.35;;;3.28;;
84301;SDS011;74468;52.218;6.896;2024-02-26T07:01:57;5.38;;;3.45;;
84301;SDS011;74468;52.218;6.896;2024-02-26T07:04:23;5.07;;;3.25;;
84301;SDS011;74468;52.218;6.896;2024-02-26T07:06:48;3.65;;;2.90;;
84301;SDS011;74468;52.218;6.896;2024-02-26T07:09:13;4.50;;;3.28;;
84301;SDS011;74468;52.218;6.896;2024-02-26T07:11:39;4.97;;;3.35;;
84301;SDS011;74468;52.218;6.896;2024-02-26T07:14:07;5.80;;;3.65;;
84301;SDS011;74468;52.218;6.896;2024-02-26T07:18:58;3.83;;;2.97;;
84301;SDS011;74468;52.218;6.896;2024-02-26T07:21:24;4.57;;;3.65;;
84301;SDS011;74468;52.218;6.896;2024-02-26T07:23:49;4.70;;;2.97;;
84301;SDS011;74468;52.218;6.896;2024-02-26T07:26:14;6.25;;;4.10;;
84301;SDS011;74468;52.218;6.896;2024-02-26T07:28:40;3.97;;;3.58;;
84301;SDS011;74468;52.218;6.896;2024-02-26T07:31:05;6.07;;;4.82;;
84301;SDS011;74468;52.218;6.896;2024-02-26T07:33:31;6.15;;;4.28;;
84301;SDS011;74468;52.218;6.896;2024-02-26T07:35:56;6.03;;;4.70;;
84301;SDS011;74468;52.218;6.896;2024-02-26T07:38:21;6.20;;;3.75;;
84301;SDS011;74468;52.218;6.896;2024-02-26T07:43:13;6.15;;;5.05;;
84301;SDS011;74468;52.218;6.896;2024-02-26T07:45:39;8.27;;;5.30;;
84301;SDS011;74468;52.218;6.896;2024-02-26T07:48:04;6.15;;;4.75;;
84301;SDS011;74468;52.218;6.896;2024-02-26T07:50:30;7.80;;;6.15;;
84301;SDS011;74468;52.218;6.896;2024-02-26T07:52:55;6.22;;;4.90;;
84301;SDS011;74468;52.218;6.896;2024-02-26T07:55:20;9.05;;;5.40;;
84301;SDS011;74468;52.218;6.896;2024-02-26T07:57:47;6.95;;;4.78;;
84301;SDS011;74468;52.218;6.896;2024-02-26T08:00:12;7.57;;;5.38;;
84301;SDS011;74468;52.218;6.896;2024-02-26T08:02:41;9.48;;;5.53;;
84301;SDS011;74468;52.218;6.896;2024-02-26T08:05:07;9.23;;;6.10;;
84301;SDS011;74468;52.218;6.896;2024-02-26T08:07:32;8.93;;;5.82;;
84301;SDS011;74468;52.218;6.896;2024-02-26T08:09:58;9.90;;;5.70;;
84301;SDS011;74468;52.218;6.896;2024-02-26T08:12:23;7.05;;;5.00;;
84301;SDS011;74468;52.218;6.896;2024-02-26T08:14:49;7.38;;;5.05;;
84301;SDS011;74468;52.218;6.896;2024-02-26T08:17:14;7.43;;;3.83;;
84301;SDS011;74468;52.218;6.896;2024-02-26T08:19:39;8.70;;;5.57;;
84301;SDS011;74468;52.218;6.896;2024-02-26T08:22:05;8.45;;;4.50;;
84301;SDS011;74468;52.218;6.896;2024-02-26T08:24:30;8.32;;;4.80;;
84301;SDS011;74468;52.218;6.896;2024-02-26T08:26:55;8.57;;;5.10;;
84301;SDS011;74468;52.218;6.896;2024-02-26T08:29:21;9.27;;;5.20;;
84301;SDS011;74468;52.218;6.896;2024-02-26T08:31:46;10.10;;;6.15;;
84301;SDS011;74468;52.218;6.896;2024-02-26T08:34:13;8.55;;;6.70;;
84301;SDS011;74468;52.218;6.896;2024-02-26T08:36:38;9.32;;;5.75;;
84301;SDS011;74468;52.218;6.896;2024-02-26T08:39:04;8.43;;;4.55;;
84301;SDS011;74468;52.218;6.896;2024-02-26T08:41:29;9.45;;;6.47;;
84301;SDS011;74468;52.218;6.896;2024-02-26T08:43:54;7.95;;;5.32;;
84301;SDS011;74468;52.218;6.896;2024-02-26T08:46:20;9.65;;;6.78;;
84301;SDS011;74468;52.218;6.896;2024-02-26T08:48:45;9.45;;;5.35;;
84301;SDS011;74468;52.218;6.896;2024-02-26T08:51:11;7.82;;;6.68;;
84301;SDS011;74468;52.218;6.896;2024-02-26T08:53:36;7.38;;;6.13;;
84301;SDS011;74468;52.218;6.896;2024-02-26T08:56:02;7.63;;;5.35;;
84301;SDS011;74468;52.218;6.896;2024-02-26T08:58:27;8.10;;;5.40;;
84301;SDS011;74468;52.218;6.896;2024-02-26T09:00:53;5.68;;;4.53;;
84301;SDS011;74468;52.218;6.896;2024-02-26T09:05:45;10.23;;;4.95;;
84301;SDS011;74468;52.218;6.896;2024-02-26T09:08:11;7.95;;;5.45;;
84301;SDS011;74468;52.218;6.896;2024-02-26T09:10:36;8.20;;;4.70;;
84301;SDS011;74468;52.218;6.896;2024-02-26T09:13:01;9.70;;;6.55;;
84301;SDS011;74468;52.218;6.896;2024-02-26T09:15:27;9.88;;;5.70;;
84301;SDS011;74468;52.218;6.896;2024-02-26T09:17:52;8.48;;;4.95;;
84301;SDS011;74468;52.218;6.896;2024-02-26T09:20:18;8.02;;;4.97;;
84301;SDS011;74468;52.218;6.896;2024-02-26T09:22:48;9.43;;;6.28;;
84301;SDS011;74468;52.218;6.896;2024-02-26T09:25:14;9.63;;;5.90;;
84301;SDS011;74468;52.218;6.896;2024-02-26T09:27:43;9.82;;;5.32;;
84301;SDS011;74468;52.218;6.896;2024-02-26T09:30:12;12.90;;;8.02;;
84301;SDS011;74468;52.218;6.896;2024-02-26T09:32:38;9.52;;;6.70;;
84301;SDS011;74468;52.218;6.896;2024-02-26T09:35:04;8.40;;;5.00;;
84301;SDS011;74468;52.218;6.896;2024-02-26T09:37:30;11.15;;;6.10;;
84301;SDS011;74468;52.218;6.896;2024-02-26T09:39:56;9.90;;;5.32;;
84301;SDS011;74468;52.218;6.896;2024-02-26T09:42:21;10.57;;;6.95;;
84301;SDS011;74468;52.218;6.896;2024-02-26T09:44:51;11.55;;;6.85;;
84301;SDS011;74468;52.218;6.896;2024-02-26T09:47:17;11.68;;;5.88;;
84301;SDS011;74468;52.218;6.896;2024-02-26T09:49:45;12.55;;;7.25;;
84301;SDS011;74468;52.218;6.896;2024-02-26T09:52:11;12.02;;;6.30;;
84301;SDS011;74468;52.218;6.896;2024-02-26T09:54:37;13.35;;;7.50;;
84301;SDS011;74468;52.218;6.896;2024-02-26T09:57:03;13.82;;;6.78;;
84301;SDS011;74468;52.218;6.896;2024-02-26T09:59:40;10.93;;;6.32;;
84301;SDS011;74468;52.218;6.896;2024-02-26T10:02:08;12.38;;;6.38;;
84301;SDS011;74468;52.218;6.896;2024-02-26T10:04:36;12.98;;;7.45;;
84301;SDS011;74468;52.218;6.896;2024-02-26T10:09:29;16.85;;;8.70;;
84301;SDS011;74468;52.218;6.896;2024-02-26T10:11:56;10.02;;;7.28;;
84301;SDS011;74468;52.218;6.896;2024-02-26T10:14:21;14.63;;;9.23;;
84301;SDS011;74468;52.218;6.896;2024-02-26T10:16:47;16.80;;;8.05;;
84301;SDS011;74468;52.218;6.896;2024-02-26T10:19:27;16.75;;;8.57;;
84301;SDS011;74468;52.218;6.896;2024-02-26T10:21:58;17.15;;;10.20;;
84301;SDS011;74468;52.218;6.896;2024-02-26T10:24:24;16.63;;;9.25;;
84301;SDS011;74468;52.218;6.896;2024-02-26T10:26:50;18.85;;;9.85;;
84301;SDS011;74468;52.218;6.896;2024-02-26T10:29:17;21.05;;;9.57;;
84301;SDS011;74468;52.218;6.896;2024-02-26T10:34:08;17.13;;;8.90;;
84301;SDS011;74468;52.218;6.896;2024-02-26T10:36:34;21.88;;;11.50;;
84301;SDS011;74468;52.218;6.896;2024-02-26T10:39:09;17.45;;;8.25;;
84301;SDS011;74468;52.218;6.896;2024-02-26T10:41:37;20.15;;;8.00;;
84301;SDS011;74468;52.218;6.896;2024-02-26T10:44:03;16.77;;;8.02;;
84301;SDS011;74468;52.218;6.896;2024-02-26T10:46:28;19.73;;;9.80;;
84301;SDS011;74468;52.218;6.896;2024-02-26T10:48:54;16.48;;;7.82;;
84301;SDS011;74468;52.218;6.896;2024-02-26T10:51:29;18.48;;;9.18;;
84301;SDS011;74468;52.218;6.896;2024-02-26T10:53:55;16.40;;;7.57;;
84301;SDS011;74468;52.218;6.896;2024-02-26T10:56:33;18.10;;;9.35;;
84301;SDS011;74468;52.218;6.896;2024-02-26T10:58:59;18.02;;;9.20;;
84301;SDS011;74468;52.218;6.896;2024-02-26T11:01:25;20.70;;;11.45;;
84301;SDS011;74468;52.218;6.896;2024-02-26T11:03:54;19.13;;;9.05;;
84301;SDS011;74468;52.218;6.896;2024-02-26T11:06:21;22.25;;;11.13;;
84301;SDS011;74468;52.218;6.896;2024-02-26T11:08:47;12.73;;;7.53;;
84301;SDS011;74468;52.218;6.896;2024-02-26T11:11:13;20.92;;;10.70;;
84301;SDS011;74468;52.218;6.896;2024-02-26T11:13:40;13.80;;;8.93;;
84301;SDS011;74468;52.218;6.896;2024-02-26T11:16:07;16.45;;;8.57;;
84301;SDS011;74468;52.218;6.896;2024-02-26T11:18:33;17.65;;;9.20;;
84301;SDS011;74468;52.218;6.896;2024-02-26T11:20:59;14.90;;;8.15;;
84301;SDS011;74468;52.218;6.896;2024-02-26T11:23:24;12.75;;;6.88;;
84301;SDS011;74468;52.218;6.896;2024-02-26T11:25:50;11.77;;;6.25;;
84301;SDS011;74468;52.218;6.896;2024-02-26T11:28:17;15.07;;;7.00;;
84301;SDS011;74468;52.218;6.896;2024-02-26T11:30:45;11.65;;;7.05;;
84301;SDS011;74468;52.218;6.896;2024-02-26T11:33:12;11.23;;;6.80;;
84301;SDS011;74468;52.218;6.896;2024-02-26T11:35:37;10.93;;;6.50;;
84301;SDS011;74468;52.218;6.896;2024-02-26T11:38:03;12.27;;;6.25;;
84301;SDS011;74468;52.218;6.896;2024-02-26T11:40:30;9.40;;;5.32;;
84301;SDS011;74468;52.218;6.896;2024-02-26T11:42:56;10.93;;;6.10;;
84301;SDS011;74468;52.218;6.896;2024-02-26T11:48:24;13.07;;;5.35;;
84301;SDS011;74468;52.218;6.896;2024-02-26T11:50:53;8.88;;;5.05;;
84301;SDS011;74468;52.218;6.896;2024-02-26T11:53:29;10.35;;;5.53;;
84301;SDS011;74468;52.218;6.896;2024-02-26T11:58:59;8.73;;;5.05;;
84301;SDS011;74468;52.218;6.896;2024-02-26T12:04:13;7.97;;;4.97;;
84301;SDS011;74468;52.218;6.896;2024-02-26T12:06:44;9.85;;;5.30;;
84301;SDS011;74468;52.218;6.896;2024-02-26T12:09:12;10.02;;;5.82;;
84301;SDS011;74468;52.218;6.896;2024-02-26T12:11:41;9.10;;;4.65;;
84301;SDS011;74468;52.218;6.896;2024-02-26T12:14:07;8.02;;;5.30;;
84301;SDS011;74468;52.218;6.896;2024-02-26T12:16:37;8.02;;;4.95;;
84301;SDS011;74468;52.218;6.896;2024-02-26T12:19:08;7.47;;;6.05;;
84301;SDS011;74468;52.218;6.896;2024-02-26T12:21:34;9.85;;;6.20;;
84301;SDS011;74468;52.218;6.896;2024-02-26T12:24:13;8.73;;;6.55;;
84301;SDS011;74468;52.218;6.896;2024-02-26T12:26:40;9.73;;;5.70;;
84301;SDS011;74468;52.218;6.896;2024-02-26T12:29:06;12.18;;;6.00;;
84301;SDS011;74468;52.218;6.896;2024-02-26T12:31:32;6.68;;;4.75;;
84301;SDS011;74468;52.218;6.896;2024-02-26T12:34:01;8.60;;;4.40;;
84301;SDS011;74468;52.218;6.896;2024-02-26T12:36:27;9.52;;;5.68;;
84301;SDS011;74468;52.218;6.896;2024-02-26T12:38:52;8.93;;;5.40;;
84301;SDS011;74468;52.218;6.896;2024-02-26T12:41:18;9.38;;;5.05;;
84301;SDS011;74468;52.218;6.896;2024-02-26T12:43:43;8.35;;;4.88;;
84301;SDS011;74468;52.218;6.896;2024-02-26T12:46:09;10.55;;;5.50;;
84301;SDS011;74468;52.218;6.896;2024-02-26T12:48:36;10.07;;;4.95;;
84301;SDS011;74468;52.218;6.896;2024-02-26T12:51:01;7.65;;;5.45;;
84301;SDS011;74468;52.218;6.896;2024-02-26T12:53:27;9.57;;;4.93;;
84301;SDS011;74468;52.218;6.896;2024-02-26T12:55:53;8.07;;;5.28;;
84301;SDS011;74468;52.218;6.896;2024-02-26T12:58:19;10.77;;;5.13;;
84301;SDS011;74468;52.218;6.896;2024-02-26T13:00:45;9.63;;;6.88;;
84301;SDS011;74468;52.218;6.896;2024-02-26T13:03:11;9.48;;;5.90;;
84301;SDS011;74468;52.218;6.896;2024-02-26T13:05:37;9.63;;;5.50;;
84301;SDS011;74468;52.218;6.896;2024-02-26T13:08:02;12.82;;;6.78;;
84301;SDS011;74468;52.218;6.896;2024-02-26T13:10:28;10.02;;;6.85;;
84301;SDS011;74468;52.218;6.896;2024-02-26T13:12:53;9.18;;;5.75;;
84301;SDS011;74468;52.218;6.896;2024-02-26T13:15:19;8.05;;;6.25;;
84301;SDS011;74468;52.218;6.896;2024-02-26T13:17:46;10.13;;;5.60;;
84301;SDS011;74468;52.218;6.896;2024-02-26T13:20:12;7.68;;;5.05;;
84301;SDS011;74468;52.218;6.896;2024-02-26T13:22:40;9.48;;;4.78;;
84301;SDS011;74468;52.218;6.896;2024-02-26T13:25:05;8.45;;;5.05;;
84301;SDS011;74468;52.218;6.896;2024-02-26T13:27:34;7.85;;;4.75;;
84301;SDS011;74468;52.218;6.896;2024-02-26T13:30:03;9.80;;;5.88;;
84301;SDS011;74468;52.218;6.896;2024-02-26T13:32:32;9.45;;;4.78;;
84301;SDS011;74468;52.218;6.896;2024-02-26T13:35:08;6.35;;;5.20;;
84301;SDS011;74468;52.218;6.896;2024-02-26T13:37:37;8.55;;;4.45;;
84301;SDS011;74468;52.218;6.896;2024-02-26T13:42:36;11.55;;;5.72;;
84301;SDS011;74468;52.218;6.896;2024-02-26T13:45:02;7.20;;;4.45;;
84301;SDS011;74468;52.218;6.896;2024-02-26T13:47:27;8.73;;;5.05;;
84301;SDS011;74468;52.218;6.896;2024-02-26T13:49:53;6.95;;;4.63;;
84301;SDS011;74468;52.218;6.896;2024-02-26T13:52:18;7.80;;;4.40;;
84301;SDS011;74468;52.218;6.896;2024-02-26T13:54:45;7.78;;;4.15;;
84301;SDS011;74468;52.218;6.896;2024-02-26T13:57:11;7.82;;;4.85;;
84301;SDS011;74468;52.218;6.896;2024-02-26T13:59:36;10.00;;;5.78;;
84301;SDS011;74468;52.218;6.896;2024-02-26T14:02:02;9.80;;;5.80;;
84301;SDS011;74468;52.218;6.896;2024-02-26T14:04:27;6.45;;;4.80;;
84301;SDS011;74468;52.218;6.896;2024-02-26T14:06:53;8.25;;;4.82;;
84301;SDS011;74468;52.218;6.896;2024-02-26T14:09:18;7.75;;;5.53;;
84301;SDS011;74468;52.218;6.896;2024-02-26T14:11:44;9.25;;;4.80;;
84301;SDS011;74468;52.218;6.896;2024-02-26T14:14:10;9.32;;;5.43;;
84301;SDS011;74468;52.218;6.896;2024-02-26T14:16:35;6.22;;;4.57;;
84301;SDS011;74468;52.218;6.896;2024-02-26T14:19:01;8.60;;;4.78;;
84301;SDS011;74468;52.218;6.896;2024-02-26T14:21:27;8.02;;;4.43;;
84301;SDS011;74468;52.218;6.896;2024-02-26T14:26:20;9.27;;;5.43;;
84301;SDS011;74468;52.218;6.896;2024-02-26T14:28:47;10.35;;;5.30;;
84301;SDS011;74468;52.218;6.896;2024-02-26T14:31:12;13.95;;;5.05;;
84301;SDS011;74468;52.218;6.896;2024-02-26T14:33:38;9.07;;;4.30;;
84301;SDS011;74468;52.218;6.896;2024-02-26T14:36:05;10.32;;;6.10;;
84301;SDS011;74468;52.218;6.896;2024-02-26T14:38:31;9.88;;;5.00;;
84301;SDS011;74468;52.218;6.896;2024-02-26T14:40:57;10.70;;;5.35;;
84301;SDS011;74468;52.218;6.896;2024-02-26T14:43:22;6.95;;;4.13;;
84301;SDS011;74468;52.218;6.896;2024-02-26T14:45:47;8.23;;;4.65;;
84301;SDS011;74468;52.218;6.896;2024-02-26T14:48:13;8.32;;;4.72;;
84301;SDS011;74468;52.218;6.896;2024-02-26T14:50:38;9.40;;;5.10;;
84301;SDS011;74468;52.218;6.896;2024-02-26T14:53:03;8.82;;;4.72;;
84301;SDS011;74468;52.218;6.896;2024-02-26T14:55:29;7.38;;;5.72;;
84301;SDS011;74468;52.218;6.896;2024-02-26T14:57:54;12.55;;;5.57;;
84301;SDS011;74468;52.218;6.896;2024-02-26T15:00:20;7.45;;;4.70;;
84301;SDS011;74468;52.218;6.896;2024-02-26T15:02:45;8.00;;;4.72;;
84301;SDS011;74468;52.218;6.896;2024-02-26T15:05:11;8.20;;;4.68;;
84301;SDS011;74468;52.218;6.896;2024-02-26T15:07:37;10.25;;;4.50;;
84301;SDS011;74468;52.218;6.896;2024-02-26T15:10:05;7.00;;;5.00;;